Time;durP1;ratioP1;P1;durP2;ratioP2;P2;SDS_P1;SDS_P2;PMS_P1;PMS_P2;Temp;Humidity;BMP_temperature;BMP_pressure;BME280_temperature;BME280_humidity;BME280_pressure;Samples;Min_cycle;Max_cycle;Signal;HPM_P1;HPM_P2
2021/01/15 00:01:20;;;;;;;4.90;3.88;;;4.30;93.30;;;;;;4975922;28;20030;-59
2021/01/15 00:03:46;;;;;;;5.88;4.18;;;3.90;93.10;;;;;;4966831;28;20141;-60
2021/01/15 00:06:18;;;;;;;9.18;3.90;;;3.90;93.20;;;;;;4969574;28;20164;-60
2021/01/15 00:08:44;;;;;;;5.70;4.13;;;3.90;93.20;;;;;;4971451;28;20058;-59
2021/01/15 00:11:19;;;;;;;5.60;3.83;;;3.90;93.20;;;;;;4983987;28;20486;-59
2021/01/15 00:13:44;;;;;;;6.72;4.03;;;3.90;93.10;;;;;;4988943;28;20144;-58
2021/01/15 00:16:17;;;;;;;6.85;3.95;;;3.90;93.20;;;;;;4972080;28;20447;-59
2021/01/15 00:18:42;;;;;;;7.47;4.43;;;3.90;93.20;;;;;;4965573;28;20019;-58
2021/01/15 00:21:08;;;;;;;5.15;4.15;;;3.90;93.20;;;;;;4979089;28;20042;-58
2021/01/15 00:23:33;;;;;;;7.05;4.07;;;3.90;93.10;;;;;;4970738;28;20054;-60
2021/01/15 00:25:59;;;;;;;4.38;3.75;;;3.90;93.20;;;;;;4945757;28;20378;-58
2021/01/15 00:28:25;;;;;;;6.28;3.50;;;3.90;93.20;;;;;;4964606;28;20027;-58
2021/01/15 00:30:50;;;;;;;4.38;3.38;;;3.90;93.20;;;;;;4968822;28;20023;-59
2021/01/15 00:33:16;;;;;;;4.35;3.38;;;3.90;93.20;;;;;;4938285;28;20026;-59
2021/01/15 00:35:41;;;;;;;4.43;3.65;;;3.90;93.20;;;;;;4963676;28;20483;-59
2021/01/15 00:38:07;;;;;;;4.55;3.53;;;3.90;93.20;;;;;;4970885;28;20054;-58
2021/01/15 00:40:32;;;;;;;4.75;3.78;;;3.90;93.20;;;;;;4990086;28;20031;-59
2021/01/15 00:42:58;;;;;;;4.55;3.83;;;3.90;93.30;;;;;;4958431;28;20034;-59
2021/01/15 00:45:23;;;;;;;8.20;3.65;;;3.90;93.20;;;;;;4989862;28;20046;-59
2021/01/15 00:47:49;;;;;;;6.03;3.35;;;3.90;93.20;;;;;;4971689;28;20027;-58
2021/01/15 00:50:14;;;;;;;4.43;3.50;;;3.90;93.20;;;;;;4969814;28;20530;-59
2021/01/15 00:52:40;;;;;;;4.25;3.80;;;3.90;93.20;;;;;;4975331;28;20022;-59
2021/01/15 00:55:06;;;;;;;5.43;3.92;;;3.90;93.20;;;;;;4990499;28;20390;-58
2021/01/15 00:57:36;;;;;;;5.28;3.67;;;3.90;93.20;;;;;;4984369;28;20043;-59
2021/01/15 01:00:04;;;;;;;5.70;3.55;;;3.90;93.20;;;;;;4986015;28;20042;-59
2021/01/15 01:02:33;;;;;;;4.00;3.60;;;3.90;93.20;;;;;;4993813;28;20053;-59
2021/01/15 01:04:58;;;;;;;5.60;3.70;;;3.90;93.20;;;;;;4964719;28;20034;-59
2021/01/15 01:07:24;;;;;;;4.15;3.38;;;3.80;93.20;;;;;;4991245;28;20041;-58
2021/01/15 01:09:49;;;;;;;8.00;4.07;;;3.90;93.20;;;;;;4989412;28;20037;-59
2021/01/15 01:12:15;;;;;;;5.13;3.70;;;4.10;93.20;;;;;;4960687;28;20435;-58
2021/01/15 01:14:40;;;;;;;4.15;3.72;;;4.00;93.20;;;;;;4990647;28;20084;-58
2021/01/15 01:17:06;;;;;;;7.18;3.58;;;3.80;93.20;;;;;;4990314;28;20027;-58
2021/01/15 01:19:31;;;;;;;3.90;3.50;;;3.90;93.20;;;;;;4973033;28;20027;-60
2021/01/15 01:21:57;;;;;;;5.70;3.22;;;3.90;93.30;;;;;;4950680;28;20019;-58
2021/01/15 01:24:22;;;;;;;4.63;3.50;;;3.80;93.20;;;;;;4982376;28;20483;-58
2021/01/15 01:26:48;;;;;;;3.95;3.47;;;3.90;93.20;;;;;;4974140;28;20019;-58
2021/01/15 01:29:13;;;;;;;5.25;3.55;;;3.80;93.20;;;;;;4971871;28;20104;-58
2021/01/15 01:31:39;;;;;;;4.25;3.25;;;3.90;93.20;;;;;;4961900;28;20497;-58
2021/01/15 01:34:04;;;;;;;4.05;3.45;;;3.80;93.20;;;;;;4970940;28;20078;-59
2021/01/15 01:36:30;;;;;;;4.78;3.58;;;4.20;93.30;;;;;;4984549;28;20180;-58
2021/01/15 01:38:55;;;;;;;4.70;4.03;;;3.80;93.20;;;;;;4989251;28;20069;-58
2021/01/15 01:41:21;;;;;;;4.57;3.70;;;3.80;93.20;;;;;;4985136;28;20471;-58
2021/01/15 01:43:46;;;;;;;7.50;3.50;;;3.80;93.20;;;;;;4969499;28;20042;-58
2021/01/15 01:46:12;;;;;;;3.95;3.55;;;3.80;93.10;;;;;;4990508;28;20089;-58
2021/01/15 01:48:37;;;;;;;4.15;3.38;;;3.80;93.10;;;;;;4988456;28;20026;-58
2021/01/15 01:51:04;;;;;;;3.90;3.28;;;3.90;93.20;;;;;;4969229;28;20043;-58
2021/01/15 01:53:32;;;;;;;6.25;3.80;;;3.80;93.10;;;;;;4989813;28;20121;-59
2021/01/15 01:56:02;;;;;;;5.03;3.63;;;3.80;93.20;;;;;;4974093;28;20097;-56
2021/01/15 01:58:27;;;;;;;5.07;3.60;;;3.80;93.10;;;;;;4970650;28;20037;-56
2021/01/15 02:00:58;;;;;;;4.30;3.22;;;3.90;93.20;;;;;;4955175;28;20094;-57
2021/01/15 02:03:23;;;;;;;3.78;3.40;;;3.80;93.10;;;;;;4974466;28;20027;-56
2021/01/15 02:05:49;;;;;;;4.32;3.25;;;3.80;93.10;;;;;;4987382;28;20109;-55
2021/01/15 02:08:14;;;;;;;3.95;3.38;;;3.80;93.20;;;;;;4986659;28;20448;-55
2021/01/15 02:10:44;;;;;;;4.40;3.67;;;3.90;93.20;;;;;;4990323;28;20038;-56
2021/01/15 02:13:31;;;;;;;6.75;3.53;;;3.80;93.10;;;;;;4989427;28;20026;-56
2021/01/15 02:16:00;;;;;;;5.30;3.50;;;3.80;93.20;;;;;;4981084;28;20026;-57
2021/01/15 02:18:35;;;;;;;5.30;3.70;;;3.80;93.10;;;;;;4968981;28;20063;-57
2021/01/15 02:21:29;;;;;;;4.10;3.57;;;3.80;93.10;;;;;;4984546;28;20027;-56
2021/01/15 02:23:59;;;;;;;6.97;3.80;;;3.80;93.10;;;;;;4987596;28;20107;-55
2021/01/15 02:26:57;;;;;;;4.13;3.72;;;3.80;93.10;;;;;;4988978;28;20056;-57
2021/01/15 02:29:26;;;;;;;5.20;3.55;;;3.80;93.10;;;;;;4985702;28;20222;-55
2021/01/15 02:32:11;;;;;;;5.38;3.83;;;3.80;93.10;;;;;;4988577;28;20097;-56
2021/01/15 02:34:57;;;;;;;3.83;3.40;;;3.80;93.10;;;;;;4987478;28;20480;-55
2021/01/15 02:37:37;;;;;;;4.63;3.63;;;3.80;93.10;;;;;;4986418;28;20081;-57
2021/01/15 02:40:07;;;;;;;6.78;3.97;;;3.80;93.10;;;;;;4984972;28;20026;-57
2021/01/15 02:42:35;;;;;;;3.92;3.20;;;3.80;93.10;;;;;;4962469;28;20163;-56
2021/01/15 02:45:03;;;;;;;6.93;3.88;;;3.80;93.10;;;;;;4969048;28;20031;-56
2021/01/15 02:47:29;;;;;;;4.22;3.40;;;3.80;93.10;;;;;;4963345;28;20033;-56
2021/01/15 02:49:58;;;;;;;3.88;3.50;;;3.80;93.20;;;;;;4969658;28;20049;-57
2021/01/15 02:52:23;;;;;;;5.40;3.80;;;3.80;93.10;;;;;;4969306;28;20509;-56
2021/01/15 02:54:49;;;;;;;3.78;3.42;;;4.00;93.20;;;;;;4971380;28;20038;-55
2021/01/15 02:57:14;;;;;;;3.88;3.45;;;3.70;93.20;;;;;;4969344;28;20027;-57
2021/01/15 02:59:40;;;;;;;4.32;3.50;;;3.90;93.20;;;;;;4969761;28;20054;-57
2021/01/15 03:02:12;;;;;;;5.50;3.60;;;3.70;93.10;;;;;;4982889;28;20101;-56
2021/01/15 03:04:52;;;;;;;4.32;3.45;;;3.70;93.10;;;;;;4950964;28;20030;-56
2021/01/15 03:07:18;;;;;;;4.43;3.60;;;3.90;93.10;;;;;;4984826;28;20022;-58
2021/01/15 03:09:46;;;;;;;5.25;3.50;;;3.70;93.10;;;;;;4955111;28;20609;-56
2021/01/15 03:12:13;;;;;;;3.80;3.33;;;4.00;93.20;;;;;;4986822;28;20026;-56
2021/01/15 03:14:39;;;;;;;3.92;3.38;;;3.70;93.10;;;;;;4969491;28;20104;-56
2021/01/15 03:17:06;;;;;;;3.90;3.38;;;3.70;93.10;;;;;;4967405;28;20062;-55
2021/01/15 03:19:33;;;;;;;3.47;3.17;;;3.70;93.10;;;;;;4952266;28;20027;-57
2021/01/15 03:22:07;;;;;;;3.60;3.28;;;3.80;93.10;;;;;;4976785;28;20418;-57
2021/01/15 03:24:33;;;;;;;4.28;3.53;;;3.70;93.00;;;;;;4987473;28;20018;-56
2021/01/15 03:26:59;;;;;;;4.30;3.67;;;3.70;93.10;;;;;;4971157;28;20018;-56
2021/01/15 03:29:24;;;;;;;4.10;3.65;;;3.70;93.10;;;;;;4988540;28;20038;-57
2021/01/15 03:31:50;;;;;;;4.68;3.90;;;3.80;93.20;;;;;;4970666;28;20018;-56
2021/01/15 03:34:15;;;;;;;3.47;3.17;;;3.70;93.10;;;;;;4985540;28;20462;-56
2021/01/15 03:36:41;;;;;;;3.70;3.30;;;3.70;93.10;;;;;;4949081;28;20039;-56
2021/01/15 03:39:06;;;;;;;5.35;3.88;;;3.70;93.10;;;;;;4988992;28;20032;-56
2021/01/15 03:41:32;;;;;;;3.58;3.25;;;3.70;93.10;;;;;;4955930;28;20479;-55
2021/01/15 03:43:57;;;;;;;5.75;3.90;;;3.70;93.10;;;;;;4988324;28;20034;-57
2021/01/15 03:46:23;;;;;;;3.83;3.50;;;3.70;93.10;;;;;;4968944;28;20037;-57
2021/01/15 03:48:48;;;;;;;4.70;3.80;;;3.70;93.10;;;;;;4986989;28;20034;-56
2021/01/15 03:51:14;;;;;;;4.10;3.53;;;3.70;93.10;;;;;;4970766;28;20033;-56
2021/01/15 03:53:44;;;;;;;4.38;3.35;;;3.70;93.10;;;;;;4953716;28;20482;-57
2021/01/15 03:56:10;;;;;;;4.50;3.63;;;3.70;93.00;;;;;;4980526;28;20084;-56
2021/01/15 03:58:35;;;;;;;4.68;3.67;;;3.90;93.10;;;;;;4967962;28;20046;-57
2021/01/15 04:01:01;;;;;;;3.63;3.33;;;4.00;93.20;;;;;;4964126;28;20451;-57
2021/01/15 04:03:26;;;;;;;4.20;3.53;;;3.70;93.10;;;;;;4970471;28;20022;-56
2021/01/15 04:05:52;;;;;;;4.90;3.97;;;3.70;93.00;;;;;;4954217;28;20057;-57
2021/01/15 04:08:17;;;;;;;5.50;3.88;;;3.70;93.10;;;;;;4969295;28;20137;-56
2021/01/15 04:10:43;;;;;;;4.50;3.90;;;3.70;93.00;;;;;;4984008;28;20038;-56
2021/01/15 04:13:08;;;;;;;4.35;3.60;;;3.90;93.10;;;;;;4985950;28;20018;-56
2021/01/15 04:15:34;;;;;;;5.03;3.45;;;3.70;93.10;;;;;;4983730;28;20503;-57
2021/01/15 04:18:00;;;;;;;4.30;3.83;;;3.70;93.10;;;;;;4964237;28;20080;-57
2021/01/15 04:20:25;;;;;;;5.43;4.55;;;3.70;93.00;;;;;;4984579;28;20022;-56
2021/01/15 04:22:51;;;;;;;4.88;3.63;;;3.70;93.10;;;;;;4980430;28;20031;-57
2021/01/15 04:25:16;;;;;;;5.13;3.83;;;3.70;93.10;;;;;;4969894;28;20125;-55
2021/01/15 04:27:42;;;;;;;4.72;3.70;;;3.80;93.10;;;;;;4978728;28;20486;-57
2021/01/15 04:30:09;;;;;;;5.05;3.83;;;3.70;93.10;;;;;;4971032;28;20031;-57
2021/01/15 04:32:35;;;;;;;5.35;3.90;;;3.70;93.00;;;;;;4985045;28;20566;-57
2021/01/15 04:35:01;;;;;;;4.43;4.03;;;3.80;93.10;;;;;;4975434;28;20133;-56
2021/01/15 04:37:27;;;;;;;6.05;3.65;;;3.70;93.00;;;;;;4990076;28;20030;-56
2021/01/15 04:39:53;;;;;;;4.55;4.10;;;3.70;93.00;;;;;;4972696;28;20038;-56
2021/01/15 04:42:19;;;;;;;4.60;4.20;;;3.70;93.00;;;;;;4973012;28;20034;-55
2021/01/15 04:44:47;;;;;;;4.63;4.10;;;3.60;93.00;;;;;;4972281;28;20019;-57
2021/01/15 04:47:13;;;;;;;3.90;3.50;;;3.80;93.10;;;;;;4949178;28;20035;-56
2021/01/15 04:49:39;;;;;;;5.05;3.92;;;3.70;93.00;;;;;;4989387;28;20034;-57
2021/01/15 04:52:05;;;;;;;4.40;4.00;;;3.70;93.30;;;;;;4984262;28;20262;-56
2021/01/15 04:54:37;;;;;;;5.20;4.70;;;3.80;93.00;;;;;;4949983;28;20022;-57
2021/01/15 04:57:07;;;;;;;5.07;4.40;;;3.60;93.00;;;;;;4971688;28;20035;-56
2021/01/15 04:59:39;;;;;;;4.78;3.92;;;3.70;93.00;;;;;;4968909;28;20022;-55
2021/01/15 05:02:08;;;;;;;4.97;4.18;;;3.70;92.90;;;;;;4979031;28;20463;-57
2021/01/15 05:04:34;;;;;;;3.92;3.58;;;3.80;93.00;;;;;;4985430;28;20033;-56
2021/01/15 05:07:01;;;;;;;4.30;3.90;;;3.60;93.00;;;;;;4951323;28;20387;-55
2021/01/15 05:09:26;;;;;;;4.70;4.00;;;3.70;92.90;;;;;;4988510;28;20486;-57
2021/01/15 05:11:52;;;;;;;4.30;3.90;;;3.60;92.90;;;;;;4986598;28;20037;-57
2021/01/15 05:14:19;;;;;;;4.82;4.18;;;3.70;93.00;;;;;;4991138;28;20527;-57
2021/01/15 05:16:45;;;;;;;4.40;3.92;;;3.60;93.00;;;;;;4990130;28;20019;-57
2021/01/15 05:19:11;;;;;;;5.28;4.20;;;3.60;92.90;;;;;;4967088;28;20145;-56
2021/01/15 05:21:37;;;;;;;4.93;4.43;;;3.70;93.00;;;;;;4968548;28;20121;-55
2021/01/15 05:24:04;;;;;;;6.13;3.80;;;3.60;93.00;;;;;;4987295;28;20572;-55
2021/01/15 05:26:30;;;;;;;4.60;4.10;;;3.60;92.90;;;;;;4970209;28;20517;-56
2021/01/15 05:28:55;;;;;;;4.95;4.45;;;3.60;92.90;;;;;;4970958;28;20023;-55
2021/01/15 05:31:21;;;;;;;4.22;3.83;;;3.60;92.90;;;;;;4985093;28;20034;-55
2021/01/15 05:34:06;;;;;;;4.10;3.70;;;3.60;92.90;;;;;;4989277;28;20117;-56
2021/01/15 05:36:34;;;;;;;5.05;4.20;;;3.60;92.90;;;;;;4989544;28;20025;-58
2021/01/15 05:39:16;;;;;;;5.40;4.07;;;3.60;93.00;;;;;;4982901;28;20037;-58
2021/01/15 05:41:42;;;;;;;5.28;4.55;;;3.60;92.90;;;;;;4985227;28;20036;-56
2021/01/15 05:44:07;;;;;;;5.57;4.93;;;3.60;93.00;;;;;;4958546;28;20423;-57
2021/01/15 05:46:33;;;;;;;4.50;4.10;;;3.60;93.00;;;;;;4969492;28;20085;-58
2021/01/15 05:49:08;;;;;;;5.18;4.68;;;3.60;93.00;;;;;;4989624;28;20037;-58
2021/01/15 05:51:35;;;;;;;4.55;4.15;;;3.60;92.90;;;;;;4979277;28;20054;-57
2021/01/15 05:54:02;;;;;;;4.75;4.25;;;3.60;93.00;;;;;;4968287;28;20029;-57
2021/01/15 05:56:47;;;;;;;4.93;4.43;;;3.60;92.90;;;;;;4989079;28;20045;-58
2021/01/15 05:59:18;;;;;;;5.35;4.85;;;3.60;92.90;;;;;;4985249;28;20026;-56
2021/01/15 06:01:51;;;;;;;4.68;4.20;;;3.70;92.90;;;;;;4991485;28;20030;-57
2021/01/15 06:04:32;;;;;;;4.70;4.00;;;3.60;92.90;;;;;;4968171;28;20474;-58
2021/01/15 06:07:14;;;;;;;4.78;4.30;;;3.60;92.90;;;;;;4971171;28;20041;-58
2021/01/15 06:09:41;;;;;;;4.68;3.85;;;3.60;92.90;;;;;;4984738;28;20731;-58
2021/01/15 06:12:11;;;;;;;4.47;4.07;;;3.90;93.00;;;;;;4980288;28;20038;-58
2021/01/15 06:14:49;;;;;;;4.22;3.83;;;3.60;92.90;;;;;;4988106;28;20412;-57
2021/01/15 06:17:19;;;;;;;6.07;4.53;;;3.60;92.90;;;;;;4980739;28;20076;-57
2021/01/15 06:19:56;;;;;;;4.60;4.20;;;3.60;92.80;;;;;;4987986;28;20076;-57
2021/01/15 06:22:49;;;;;;;4.60;4.10;;;3.60;92.80;;;;;;4981009;28;20395;-58
2021/01/15 06:25:24;;;;;;;6.07;4.70;;;3.60;92.80;;;;;;4976291;28;20042;-56
2021/01/15 06:27:57;;;;;;;5.55;4.60;;;3.70;92.90;;;;;;4989495;28;20050;-56
2021/01/15 06:30:35;;;;;;;4.40;4.00;;;3.80;93.00;;;;;;4966704;28;20197;-57
2021/01/15 06:33:14;;;;;;;4.82;4.32;;;3.70;92.90;;;;;;4972824;28;20026;-57
2021/01/15 06:35:44;;;;;;;4.80;4.20;;;3.60;92.80;;;;;;4957692;28;20070;-57
2021/01/15 06:38:10;;;;;;;4.85;4.32;;;3.60;92.80;;;;;;4968172;28;20034;-58
2021/01/15 06:40:39;;;;;;;4.78;4.32;;;3.90;92.90;;;;;;4979172;28;20104;-58
2021/01/15 06:43:09;;;;;;;5.00;4.55;;;3.90;92.90;;;;;;4975838;28;20331;-57
2021/01/15 06:45:36;;;;;;;4.32;3.85;;;3.60;92.80;;;;;;4964873;28;20117;-57
2021/01/15 06:48:07;;;;;;;4.40;4.00;;;3.80;92.90;;;;;;4946704;28;20152;-56
2021/01/15 06:50:33;;;;;;;4.80;4.30;;;3.60;92.80;;;;;;4977813;28;20042;-57
2021/01/15 06:52:59;;;;;;;4.18;3.78;;;3.90;92.90;;;;;;4974648;28;20047;-58
2021/01/15 06:55:25;;;;;;;5.38;4.78;;;3.80;92.80;;;;;;4979144;28;20068;-57
2021/01/15 06:57:50;;;;;;;5.80;4.75;;;3.80;92.90;;;;;;4947848;28;20026;-56
2021/01/15 07:00:23;;;;;;;5.05;4.55;;;3.60;92.80;;;;;;4979445;28;20397;-57
2021/01/15 07:03:16;;;;;;;5.30;4.80;;;3.60;92.80;;;;;;4949081;28;20479;-57
2021/01/15 07:05:45;;;;;;;5.00;4.50;;;3.70;92.80;;;;;;4980553;28;20057;-59
2021/01/15 07:08:12;;;;;;;5.28;4.60;;;3.70;92.80;;;;;;4960753;28;20379;-58
2021/01/15 07:10:38;;;;;;;5.35;4.85;;;3.60;92.80;;;;;;4974520;28;20033;-57
2021/01/15 07:13:05;;;;;;;5.63;4.95;;;3.60;92.80;;;;;;4982604;28;20385;-58
2021/01/15 07:15:31;;;;;;;5.20;4.57;;;3.60;92.80;;;;;;4975048;28;20557;-58
2021/01/15 07:17:58;;;;;;;5.82;4.72;;;3.60;92.80;;;;;;4968729;28;20070;-58
2021/01/15 07:20:24;;;;;;;5.50;5.00;;;3.60;92.80;;;;;;4956578;28;20029;-56
2021/01/15 07:22:56;;;;;;;5.45;4.95;;;3.60;92.80;;;;;;4989107;28;20090;-57
2021/01/15 07:25:22;;;;;;;5.75;5.05;;;3.70;92.80;;;;;;4969931;28;20027;-57
2021/01/15 07:27:48;;;;;;;5.97;5.38;;;3.80;92.90;;;;;;4970308;28;20105;-58
2021/01/15 07:30:24;;;;;;;4.95;4.45;;;3.50;92.80;;;;;;4970018;28;20057;-57
2021/01/15 07:32:50;;;;;;;5.40;4.90;;;3.50;92.80;;;;;;4984429;28;20027;-57
2021/01/15 07:35:17;;;;;;;5.93;5.32;;;3.90;92.90;;;;;;4988076;28;20475;-59
2021/01/15 07:37:42;;;;;;;6.43;4.80;;;3.50;92.80;;;;;;4969056;28;20033;-58
2021/01/15 07:40:16;;;;;;;5.90;5.30;;;3.60;92.80;;;;;;4952481;28;20114;-58
2021/01/15 07:42:47;;;;;;;5.45;4.75;;;3.50;92.70;;;;;;4986216;28;20025;-57
2021/01/15 07:45:25;;;;;;;5.68;4.97;;;3.50;92.80;;;;;;4988704;28;20053;-57
2021/01/15 07:47:57;;;;;;;4.57;4.18;;;3.50;92.70;;;;;;4983301;28;20030;-57
2021/01/15 07:50:35;;;;;;;4.97;4.47;;;3.50;92.70;;;;;;4987757;28;20163;-57
2021/01/15 07:53:13;;;;;;;6.13;5.28;;;3.50;92.70;;;;;;4970656;28;20054;-58
2021/01/15 07:55:46;;;;;;;5.93;5.32;;;3.50;92.70;;;;;;4982251;28;20023;-57
2021/01/15 07:58:12;;;;;;;5.70;5.10;;;3.60;92.70;;;;;;4963498;28;20041;-58
2021/01/15 08:00:38;;;;;;;6.43;4.95;;;3.80;92.80;;;;;;4985701;28;20030;-59
2021/01/15 08:03:04;;;;;;;6.18;4.68;;;3.50;92.80;;;;;;4979621;28;20035;-58
2021/01/15 08:05:29;;;;;;;5.07;4.65;;;3.50;92.80;;;;;;4983289;28;20034;-56
2021/01/15 08:08:24;;;;;;;5.95;5.30;;;3.50;92.70;;;;;;4952120;28;20030;-57
2021/01/15 08:10:50;;;;;;;5.50;4.85;;;3.60;92.80;;;;;;4969091;28;20054;-58
2021/01/15 08:13:29;;;;;;;5.38;4.88;;;3.50;92.70;;;;;;4988293;28;20048;-59
2021/01/15 08:15:55;;;;;;;6.15;5.55;;;3.50;92.70;;;;;;4986477;28;20054;-58
2021/01/15 08:18:21;;;;;;;5.13;4.63;;;3.50;92.70;;;;;;4986431;28;20042;-57
2021/01/15 08:20:47;;;;;;;5.72;5.18;;;3.80;92.80;;;;;;4962506;28;20065;-57
2021/01/15 08:23:23;;;;;;;6.30;5.70;;;3.60;92.70;;;;;;4982790;28;20038;-57
2021/01/15 08:26:01;;;;;;;5.53;4.95;;;3.50;92.70;;;;;;4988058;28;20026;-57
2021/01/15 08:28:26;;;;;;;5.63;4.70;;;3.50;92.70;;;;;;4987055;28;20050;-58
2021/01/15 08:31:03;;;;;;;6.32;5.40;;;3.50;92.70;;;;;;4962565;28;20125;-57
2021/01/15 08:33:28;;;;;;;6.05;5.43;;;3.50;92.70;;;;;;4980834;28;20549;-57
2021/01/15 08:35:55;;;;;;;6.40;5.80;;;3.50;92.70;;;;;;4985466;28;20085;-58
2021/01/15 08:38:31;;;;;;;6.80;6.18;;;3.50;92.70;;;;;;4965587;28;20030;-58
2021/01/15 08:40:56;;;;;;;5.88;5.28;;;3.50;92.70;;;;;;4976326;28;20027;-58
2021/01/15 08:43:24;;;;;;;6.55;5.53;;;3.50;92.70;;;;;;4982285;28;20530;-58
2021/01/15 08:45:50;;;;;;;6.45;5.53;;;3.50;92.70;;;;;;4984131;28;20018;-58
2021/01/15 08:48:15;;;;;;;5.57;5.00;;;3.50;92.70;;;;;;4980052;28;20061;-58
2021/01/15 08:50:41;;;;;;;6.00;5.43;;;3.50;92.70;;;;;;4982258;28;20061;-56
2021/01/15 08:53:08;;;;;;;6.28;5.43;;;3.50;92.70;;;;;;4960260;28;20054;-57
2021/01/15 08:55:33;;;;;;;5.93;5.32;;;3.50;92.60;;;;;;4959634;28;20026;-58
2021/01/15 08:58:03;;;;;;;6.25;5.65;;;3.50;92.70;;;;;;4961429;28;20101;-59
2021/01/15 09:00:28;;;;;;;6.35;5.60;;;3.50;92.70;;;;;;4974165;28;20034;-57
2021/01/15 09:02:54;;;;;;;7.20;5.90;;;3.50;92.70;;;;;;4961948;28;20113;-57
2021/01/15 09:05:20;;;;;;;6.35;5.75;;;3.50;92.70;;;;;;4960028;28;20479;-58
2021/01/15 09:07:46;;;;;;;7.05;6.22;;;3.50;92.70;;;;;;4966124;28;20034;-56
2021/01/15 09:10:13;;;;;;;6.50;5.90;;;3.50;92.60;;;;;;4977007;28;20022;-58
2021/01/15 09:12:40;;;;;;;6.40;5.40;;;3.50;92.60;;;;;;4977485;28;20030;-57
2021/01/15 09:15:07;;;;;;;6.75;6.00;;;3.50;92.60;;;;;;4982531;28;20178;-57
2021/01/15 09:17:32;;;;;;;6.25;5.65;;;3.50;92.60;;;;;;4962071;28;20027;-58
2021/01/15 09:19:58;;;;;;;6.63;5.97;;;3.50;92.60;;;;;;4989302;28;20041;-57
2021/01/15 09:22:26;;;;;;;6.43;5.72;;;3.50;92.60;;;;;;4970956;28;20042;-58
2021/01/15 09:24:52;;;;;;;6.63;5.88;;;3.50;92.60;;;;;;4972733;28;20390;-58
2021/01/15 09:27:18;;;;;;;6.47;5.82;;;3.50;92.60;;;;;;4986839;28;20037;-57
2021/01/15 09:29:43;;;;;;;7.20;6.50;;;3.50;92.60;;;;;;4956319;28;20065;-57
2021/01/15 09:32:09;;;;;;;7.47;6.07;;;3.50;92.60;;;;;;4989465;28;20050;-57
2021/01/15 09:34:34;;;;;;;6.80;5.97;;;3.50;92.60;;;;;;4974441;28;20072;-57
2021/01/15 09:37:01;;;;;;;6.18;5.57;;;3.50;92.60;;;;;;4988498;28;20069;-57
2021/01/15 09:39:26;;;;;;;11.93;5.85;;;3.50;92.50;;;;;;4988883;28;20030;-57
2021/01/15 09:41:57;;;;;;;8.38;5.47;;;3.50;92.60;;;;;;4964581;28;20038;-58
2021/01/15 09:44:23;;;;;;;15.00;6.43;;;3.50;92.50;;;;;;4985766;28;20033;-59
2021/01/15 09:46:55;;;;;;;7.80;5.68;;;3.60;92.50;;;;;;4982901;28;20371;-57
2021/01/15 09:49:20;;;;;;;9.65;6.85;;;3.50;92.50;;;;;;4965716;28;20161;-58
2021/01/15 09:51:47;;;;;;;8.95;6.22;;;3.50;92.50;;;;;;4985949;28;20109;-59
2021/01/15 09:54:13;;;;;;;9.77;6.68;;;3.50;92.50;;;;;;4988234;28;20057;-57
2021/01/15 09:56:40;;;;;;;8.23;6.47;;;3.50;92.50;;;;;;4971004;28;20026;-57
2021/01/15 09:59:06;;;;;;;19.05;7.28;;;3.50;92.40;;;;;;4983303;28;20041;-57
2021/01/15 10:01:32;;;;;;;11.88;7.07;;;3.50;92.50;;;;;;4986185;28;20030;-58
2021/01/15 10:03:58;;;;;;;20.58;8.05;;;3.50;92.40;;;;;;4962310;28;20786;-57
2021/01/15 10:06:24;;;;;;;13.48;7.93;;;3.50;92.40;;;;;;4980124;28;20042;-57
2021/01/15 10:08:49;;;;;;;22.95;8.20;;;3.50;92.70;;;;;;4969782;28;20495;-57
2021/01/15 10:11:20;;;;;;;16.80;7.40;;;3.60;92.40;;;;;;4950448;28;20026;-56
2021/01/15 10:13:46;;;;;;;20.50;7.97;;;3.50;92.40;;;;;;4949496;28;20070;-58
2021/01/15 10:16:11;;;;;;;21.20;8.25;;;3.50;92.40;;;;;;4980990;28;20019;-57
2021/01/15 10:18:38;;;;;;;18.02;7.82;;;3.50;92.40;;;;;;4970190;28;20041;-58
2021/01/15 10:21:03;;;;;;;15.02;7.65;;;3.50;92.40;;;;;;4969055;28;20205;-57
2021/01/15 10:23:29;;;;;;;24.88;8.20;;;3.50;92.50;;;;;;4962410;28;20031;-58
2021/01/15 10:25:54;;;;;;;22.77;8.45;;;3.50;92.40;;;;;;4977861;28;20023;-58
2021/01/15 10:28:21;;;;;;;28.25;8.57;;;3.50;92.40;;;;;;4978130;28;20101;-57
2021/01/15 10:30:47;;;;;;;27.80;8.35;;;3.50;92.40;;;;;;4957471;28;20030;-58
2021/01/15 10:33:13;;;;;;;20.50;8.50;;;3.50;92.40;;;;;;4979989;28;20019;-57
2021/01/15 10:35:39;;;;;;;14.63;7.72;;;3.50;92.40;;;;;;4982564;28;20034;-58
2021/01/15 10:38:04;;;;;;;14.38;7.80;;;3.50;92.40;;;;;;4969757;28;20034;-58
2021/01/15 10:40:30;;;;;;;15.95;7.90;;;3.50;92.40;;;;;;4978132;28;20040;-58
2021/01/15 10:42:55;;;;;;;20.80;8.40;;;3.50;92.40;;;;;;4959979;28;20108;-56
2021/01/15 10:45:21;;;;;;;21.95;8.70;;;3.50;92.40;;;;;;4985356;28;20571;-58
2021/01/15 10:47:46;;;;;;;34.72;8.48;;;3.50;92.40;;;;;;4971402;28;20038;-57
2021/01/15 10:50:13;;;;;;;27.27;9.38;;;3.50;92.40;;;;;;4979305;28;20046;-59
2021/01/15 10:52:39;;;;;;;70.68;11.40;;;3.50;92.40;;;;;;4979463;28;20026;-58
2021/01/15 10:55:05;;;;;;;34.60;10.35;;;3.50;92.40;;;;;;4956226;28;20036;-58
2021/01/15 10:57:30;;;;;;;28.65;9.18;;;3.60;92.40;;;;;;4940738;28;20434;-58
2021/01/15 10:59:56;;;;;;;28.35;8.60;;;3.60;92.50;;;;;;4954706;28;20039;-58
2021/01/15 11:02:22;;;;;;;101.82;13.63;;;3.60;92.50;;;;;;4941226;28;20061;-57
2021/01/15 11:04:47;;;;;;;45.92;10.15;;;3.60;92.50;;;;;;4982167;28;20082;-58
2021/01/15 11:07:13;;;;;;;65.97;11.40;;;3.60;92.50;;;;;;4973039;28;20066;-58
2021/01/15 11:09:38;;;;;;;24.55;8.60;;;3.70;92.60;;;;;;4958959;28;20574;-57
2021/01/15 11:12:04;;;;;;;28.13;9.10;;;3.60;92.50;;;;;;4937549;28;20043;-58
2021/01/15 11:14:30;;;;;;;34.17;8.77;;;3.60;92.40;;;;;;4977403;28;20038;-57
2021/01/15 11:16:55;;;;;;;26.60;8.52;;;3.70;92.40;;;;;;4973815;28;20019;-58
2021/01/15 11:19:21;;;;;;;20.23;8.50;;;3.60;92.30;;;;;;4978940;28;20027;-58
2021/01/15 11:21:47;;;;;;;28.88;9.38;;;3.60;92.30;;;;;;4949300;28;20069;-58
2021/01/15 11:24:12;;;;;;;31.45;8.88;;;3.60;92.30;;;;;;4976745;28;20026;-57
2021/01/15 11:26:38;;;;;;;22.05;8.18;;;3.60;92.30;;;;;;4975687;28;20053;-58
2021/01/15 11:29:05;;;;;;;23.77;8.40;;;3.60;92.30;;;;;;4960686;28;20041;-57
2021/01/15 11:31:30;;;;;;;45.78;8.98;;;3.60;92.20;;;;;;4980124;28;20484;-57
2021/01/15 11:33:57;;;;;;;30.70;8.52;;;3.60;92.30;;;;;;4969082;28;20120;-57
2021/01/15 11:36:23;;;;;;;26.35;7.93;;;3.70;92.30;;;;;;4966368;28;20026;-58
2021/01/15 11:38:50;;;;;;;19.38;7.93;;;3.60;92.30;;;;;;4969178;28;20125;-58
2021/01/15 11:41:16;;;;;;;31.58;8.93;;;3.70;92.30;;;;;;4969261;28;20054;-56
2021/01/15 11:43:42;;;;;;;27.17;8.98;;;3.80;92.30;;;;;;4964552;28;20041;-58
2021/01/15 11:46:07;;;;;;;35.28;8.30;;;3.60;92.20;;;;;;4982346;28;20019;-57
2021/01/15 11:48:33;;;;;;;21.55;7.85;;;3.60;92.30;;;;;;4969457;28;20363;-58
2021/01/15 11:51:02;;;;;;;16.23;7.90;;;3.70;92.30;;;;;;4979462;28;20085;-57
2021/01/15 11:53:32;;;;;;;22.52;8.07;;;3.70;92.30;;;;;;4948622;28;20514;-56
2021/01/15 11:55:57;;;;;;;22.63;7.85;;;3.70;92.20;;;;;;4952791;28;20487;-57
2021/01/15 11:58:23;;;;;;;21.00;8.63;;;3.80;92.20;;;;;;4985567;28;20081;-57
2021/01/15 12:00:49;;;;;;;23.20;8.43;;;3.90;92.20;;;;;;4977057;28;20037;-58
2021/01/15 12:03:14;;;;;;;24.25;8.45;;;3.70;92.10;;;;;;4982522;28;20026;-58
2021/01/15 12:05:44;;;;;;;22.80;7.55;;;3.70;92.20;;;;;;4974219;28;20409;-58
2021/01/15 12:08:09;;;;;;;40.25;8.35;;;3.70;92.10;;;;;;4965067;28;20390;-58
2021/01/15 12:10:35;;;;;;;36.13;8.88;;;3.70;92.20;;;;;;4963238;28;20049;-56
2021/01/15 12:13:01;;;;;;;29.00;9.65;;;3.80;92.20;;;;;;4951711;28;20046;-58
2021/01/15 12:15:26;;;;;;;47.08;9.07;;;3.70;92.20;;;;;;4980855;28;20358;-57
2021/01/15 12:17:52;;;;;;;31.05;8.80;;;3.70;92.20;;;;;;4980127;28;20089;-57
2021/01/15 12:20:17;;;;;;;29.33;8.70;;;3.80;92.20;;;;;;4942036;28;20034;-58
2021/01/15 12:22:44;;;;;;;38.42;8.88;;;3.70;92.20;;;;;;4982604;28;20043;-58
2021/01/15 12:25:10;;;;;;;28.08;9.15;;;3.80;92.20;;;;;;4964860;28;20470;-57
2021/01/15 12:27:36;;;;;;;35.85;10.05;;;3.80;92.50;;;;;;4984738;28;20045;-57
2021/01/15 12:30:04;;;;;;;30.10;8.70;;;3.80;92.10;;;;;;4969714;28;20023;-58
2021/01/15 12:32:29;;;;;;;31.67;8.77;;;3.80;92.10;;;;;;4986716;28;20437;-58
2021/01/15 12:34:55;;;;;;;17.63;7.53;;;3.80;92.10;;;;;;4935847;28;20058;-57
2021/01/15 12:37:27;;;;;;;29.38;8.48;;;3.80;92.10;;;;;;4988269;28;20026;-57
2021/01/15 12:39:53;;;;;;;23.42;7.70;;;3.80;92.10;;;;;;4968265;28;20150;-57
2021/01/15 12:42:19;;;;;;;21.63;7.85;;;3.80;92.00;;;;;;4967364;28;20023;-56
2021/01/15 12:44:44;;;;;;;22.08;7.72;;;3.80;92.00;;;;;;4979063;28;20037;-57
2021/01/15 12:47:10;;;;;;;18.38;7.15;;;3.70;92.00;;;;;;4946584;28;20047;-57
2021/01/15 12:49:35;;;;;;;24.08;8.68;;;3.80;92.00;;;;;;4967519;28;20121;-57
2021/01/15 12:52:01;;;;;;;24.02;8.50;;;3.70;92.00;;;;;;4969146;28;20049;-57
2021/01/15 12:54:26;;;;;;;25.17;8.07;;;3.80;92.00;;;;;;4986869;28;20022;-58
2021/01/15 12:56:52;;;;;;;28.63;8.77;;;3.70;92.00;;;;;;4979357;28;20042;-58
2021/01/15 12:59:17;;;;;;;24.67;7.95;;;3.80;91.90;;;;;;4959358;28;20037;-57